Time;durP1;ratioP1;P1;durP2;ratioP2;P2;SDS_P1;SDS_P2;PMS_P1;PMS_P2;Temp;Humidity;BMP_temperature;BMP_pressure;BME280_temperature;BME280_humidity;BME280_pressure;Samples;Min_cycle;Max_cycle;Signal;HPM_P1;HPM_P2
2022/11/10 00:00:14;;;;;;;0.17;0.10;;;9.90;99.90;;;;;;6219377;23;20333;-88
2022/11/10 00:02:42;;;;;;;0.20;0.20;;;9.10;99.90;;;;;;6242674;23;20103;-87
2022/11/10 00:05:12;;;;;;;0.28;0.28;;;9.10;99.90;;;;;;6220207;23;20017;-87
2022/11/10 00:07:41;;;;;;;0.10;0.10;;;9.10;99.90;;;;;;6243547;23;20123;-87
2022/11/10 00:10:07;;;;;;;0.20;0.20;;;9.10;99.90;;;;;;6219474;23;20066;-87
2022/11/10 00:12:33;;;;;;;0.40;0.20;;;9.10;99.90;;;;;;6193561;23;20035;-88
2022/11/10 00:17:44;;;;;;;1.52;0.20;;;9.10;99.90;;;;;;6243581;23;20333;-87
2022/11/10 00:20:11;;;;;;;0.20;0.20;;;9.00;99.90;;;;;;6244354;23;20047;-87
2022/11/10 00:22:38;;;;;;;0.10;0.10;;;9.00;99.90;;;;;;6243224;23;20027;-89
2022/11/10 00:25:04;;;;;;;0.10;0.10;;;9.10;99.90;;;;;;6243495;23;20073;-87
2022/11/10 00:27:33;;;;;;;0.20;0.20;;;9.00;99.90;;;;;;6217334;23;20463;-87
2022/11/10 00:29:58;;;;;;;1.50;0.30;;;9.00;99.90;;;;;;6193498;23;20024;-87
2022/11/10 00:32:24;;;;;;;0.30;0.10;;;9.00;99.90;;;;;;6192851;23;20020;-88
2022/11/10 00:34:50;;;;;;;0.23;0.20;;;9.00;99.90;;;;;;6219793;23;20384;-87
2022/11/10 00:37:16;;;;;;;0.60;0.60;;;8.90;99.90;;;;;;6218519;23;20472;-87
2022/11/10 00:39:42;;;;;;;0.10;0.10;;;9.00;99.90;;;;;;6218746;23;20560;-87
2022/11/10 00:42:08;;;;;;;0.10;0.10;;;8.90;99.90;;;;;;6243676;23;20016;-87
2022/11/10 00:44:36;;;;;;;0.30;0.30;;;9.00;99.90;;;;;;6193840;23;20020;-88
2022/11/10 00:47:02;;;;;;;0.38;0.30;;;8.30;99.90;;;;;;6218665;23;20020;-87
2022/11/10 00:49:28;;;;;;;4.13;1.43;;;8.60;99.90;;;;;;6218327;23;20019;-87
2022/11/10 00:51:53;;;;;;;0.30;0.20;;;8.90;99.90;;;;;;6218515;23;20016;-88
2022/11/10 00:54:19;;;;;;;0.10;0.10;;;8.90;99.90;;;;;;6218306;23;20460;-88
2022/11/10 00:56:45;;;;;;;0.87;0.67;;;8.80;99.90;;;;;;6242390;23;20009;-88
2022/11/10 00:59:11;;;;;;;0.20;0.20;;;8.80;99.90;;;;;;6218802;23;20095;-88
2022/11/10 01:01:36;;;;;;;0.20;0.20;;;8.80;99.90;;;;;;6218230;23;20098;-88
2022/11/10 01:04:03;;;;;;;0.20;0.20;;;8.70;99.90;;;;;;6218663;23;20023;-88
2022/11/10 01:06:28;;;;;;;0.70;0.10;;;8.80;99.90;;;;;;6242359;23;20024;-88
2022/11/10 01:08:54;;;;;;;0.60;0.20;;;8.70;99.90;;;;;;6243772;23;20020;-87
2022/11/10 01:11:26;;;;;;;0.17;0.17;;;8.80;99.90;;;;;;6218780;23;20100;-87
2022/11/10 01:13:55;;;;;;;1.67;0.68;;;8.70;99.90;;;;;;6218401;23;20052;-87
2022/11/10 01:16:29;;;;;;;0.40;0.40;;;8.80;99.90;;;;;;6217636;23;20020;-87
2022/11/10 01:18:57;;;;;;;0.43;0.20;;;8.00;99.90;;;;;;6218663;23;20555;-87
2022/11/10 01:21:23;;;;;;;0.45;0.45;;;8.70;99.90;;;;;;6218963;23;20047;-87
2022/11/10 01:23:50;;;;;;;0.43;0.30;;;9.20;99.90;;;;;;6242906;23;20665;-87
2022/11/10 01:26:17;;;;;;;0.20;0.20;;;8.70;99.90;;;;;;6243441;23;20514;-88
2022/11/10 01:28:43;;;;;;;0.43;0.43;;;8.70;99.90;;;;;;6217021;23;20023;-87
2022/11/10 01:31:11;;;;;;;0.10;0.08;;;8.80;99.90;;;;;;6218651;23;20075;-88
2022/11/10 01:33:38;;;;;;;0.47;0.30;;;8.60;99.90;;;;;;6216844;23;20751;-87
2022/11/10 01:36:05;;;;;;;1.40;0.50;;;8.50;99.90;;;;;;6243676;23;20012;-87
2022/11/10 01:38:34;;;;;;;0.65;0.30;;;7.90;99.90;;;;;;6243448;23;20503;-87
2022/11/10 01:41:02;;;;;;;1.38;0.30;;;8.50;99.90;;;;;;6218739;23;20024;-88
2022/11/10 01:43:28;;;;;;;0.32;0.10;;;7.80;99.90;;;;;;6243134;23;20019;-87
2022/11/10 01:46:01;;;;;;;0.28;0.28;;;8.60;99.90;;;;;;6242860;23;20590;-87
2022/11/10 01:48:29;;;;;;;0.13;0.13;;;8.50;99.90;;;;;;6218399;23;20025;-87
2022/11/10 01:50:59;;;;;;;0.25;0.25;;;8.50;99.90;;;;;;6217721;23;20016;-88
2022/11/10 01:53:27;;;;;;;1.08;0.47;;;8.50;99.90;;;;;;6218185;23;20057;-87
2022/11/10 01:55:54;;;;;;;0.73;0.30;;;8.50;99.90;;;;;;6217629;23;20840;-87
2022/11/10 01:58:29;;;;;;;0.65;0.40;;;8.50;99.90;;;;;;6217325;23;20016;-88
2022/11/10 02:00:55;;;;;;;1.20;0.45;;;8.50;99.90;;;;;;6218056;23;20583;-87
2022/11/10 02:03:30;;;;;;;0.30;0.30;;;8.40;99.90;;;;;;6217972;23;20018;-87
2022/11/10 02:05:57;;;;;;;0.20;0.20;;;8.60;99.90;;;;;;6243245;23;20357;-87
2022/11/10 02:08:24;;;;;;;2.35;0.25;;;8.40;99.90;;;;;;6217887;23;20407;-87
2022/11/10 02:10:50;;;;;;;0.22;0.13;;;8.40;99.90;;;;;;6243119;23;20058;-87
2022/11/10 02:13:16;;;;;;;0.87;0.20;;;8.40;99.90;;;;;;6218526;23;20020;-87
2022/11/10 02:15:42;;;;;;;0.00;0.00;;;8.40;99.90;;;;;;6217526;23;20467;-87
2022/11/10 02:18:07;;;;;;;0.20;0.20;;;8.50;99.90;;;;;;6217868;23;20070;-87
2022/11/10 02:20:34;;;;;;;0.23;0.20;;;8.50;99.90;;;;;;6218523;23;20409;-87
2022/11/10 02:23:30;;;;;;;0.17;0.10;;;8.40;99.90;;;;;;6217877;23;20317;-88
2022/11/10 02:25:57;;;;;;;0.03;0.03;;;8.50;99.90;;;;;;6240550;23;20459;-88
2022/11/10 02:28:23;;;;;;;;;;;8.50;99.90;;;;;;6192802;23;20468;-87
2022/11/10 02:30:49;;;;;;;0.10;0.10;;;8.50;99.90;;;;;;6242083;23;19919;-88
2022/11/10 02:33:18;;;;;;;0.10;0.10;;;8.50;99.90;;;;;;6218110;23;20437;-87
2022/11/10 02:35:49;;;;;;;0.60;0.30;;;8.50;99.90;;;;;;6242109;23;20069;-87
2022/11/10 02:38:15;;;;;;;0.73;0.30;;;7.60;99.90;;;;;;6192990;23;20377;-88
2022/11/10 02:40:40;;;;;;;0.53;0.20;;;8.50;99.90;;;;;;6192684;23;20052;-88
2022/11/10 02:43:11;;;;;;;0.17;0.17;;;8.60;99.90;;;;;;6217375;23;20021;-88
2022/11/10 02:45:42;;;;;;;0.75;0.22;;;9.30;99.90;;;;;;6217768;23;20475;-88
2022/11/10 02:48:08;;;;;;;0.40;0.15;;;8.70;99.90;;;;;;6194289;23;20098;-88
2022/11/10 02:50:34;;;;;;;0.22;0.22;;;8.50;99.90;;;;;;6193079;23;20027;-88
2022/11/10 02:53:00;;;;;;;0.20;0.20;;;9.80;99.90;;;;;;6217614;23;20012;-88
2022/11/10 02:55:26;;;;;;;0.00;0.00;;;8.50;99.90;;;;;;6218723;23;20020;-88
2022/11/10 02:57:52;;;;;;;1.30;0.73;;;8.50;99.90;;;;;;6217486;23;20450;-88
2022/11/10 03:00:18;;;;;;;0.00;0.00;;;8.50;99.90;;;;;;6194559;23;20102;-88
2022/11/10 03:02:44;;;;;;;0.30;0.20;;;8.50;99.90;;;;;;6218815;23;20020;-88
2022/11/10 03:05:10;;;;;;;0.03;0.03;;;8.40;99.90;;;;;;6219431;23;20055;-87
2022/11/10 03:07:36;;;;;;;0.10;0.10;;;8.50;99.90;;;;;;6218809;23;20035;-88
2022/11/10 03:10:02;;;;;;;1.03;0.23;;;7.30;99.90;;;;;;6193275;23;20020;-88
2022/11/10 03:12:28;;;;;;;1.13;0.52;;;8.50;99.90;;;;;;6219418;23;20012;-87
2022/11/10 03:14:54;;;;;;;0.00;0.00;;;7.40;99.90;;;;;;6218570;23;20090;-87
2022/11/10 03:17:19;;;;;;;0.50;0.20;;;8.50;99.90;;;;;;6219350;23;20048;-87
2022/11/10 03:19:45;;;;;;;1.93;0.43;;;8.80;99.90;;;;;;6218525;23;20034;-89
2022/11/10 03:22:11;;;;;;;0.33;0.17;;;8.60;99.90;;;;;;6244245;23;20074;-88
2022/11/10 03:24:36;;;;;;;0.20;0.13;;;8.60;99.90;;;;;;6219137;23;20103;-87
2022/11/10 03:27:02;;;;;;;0.60;0.20;;;8.60;99.90;;;;;;6193569;23;20406;-87
2022/11/10 03:29:28;;;;;;;0.30;0.10;;;8.50;99.90;;;;;;6218081;23;20341;-87
2022/11/10 03:31:54;;;;;;;0.17;0.10;;;8.60;99.90;;;;;;6218096;23;20076;-88
2022/11/10 03:34:19;;;;;;;0.20;0.20;;;8.60;99.90;;;;;;6244356;23;20020;-88
2022/11/10 03:36:45;;;;;;;0.20;0.20;;;8.70;99.90;;;;;;6218868;23;20023;-88
2022/11/10 03:39:11;;;;;;;0.20;0.20;;;8.70;99.90;;;;;;6217272;23;20336;-88
2022/11/10 03:41:37;;;;;;;0.80;0.30;;;8.60;99.90;;;;;;6219225;23;20027;-87
2022/11/10 03:44:02;;;;;;;1.47;0.40;;;8.60;99.90;;;;;;6218192;23;20020;-88
2022/11/10 03:46:28;;;;;;;0.20;0.20;;;8.50;99.90;;;;;;6244300;23;20020;-87
2022/11/10 03:48:54;;;;;;;0.20;0.20;;;8.60;99.90;;;;;;6217277;23;20074;-87
2022/11/10 03:51:21;;;;;;;0.20;0.07;;;8.30;99.90;;;;;;6219394;23;20070;-87
2022/11/10 03:53:46;;;;;;;;;;;8.50;99.90;;;;;;6244645;23;20024;-88
2022/11/10 03:56:12;;;;;;;0.75;0.55;;;8.50;99.90;;;;;;6243797;23;19923;-88
2022/11/10 03:58:39;;;;;;;0.10;0.10;;;8.50;99.90;;;;;;6242815;23;20012;-87
2022/11/10 04:01:04;;;;;;;0.73;0.73;;;8.60;99.90;;;;;;6217695;23;20461;-88
2022/11/10 04:03:30;;;;;;;0.73;0.20;;;8.50;99.90;;;;;;6193767;23;20016;-88
2022/11/10 04:08:58;;;;;;;0.65;0.30;;;8.50;99.90;;;;;;6242358;23;20095;-87
2022/11/10 04:16:53;;;;;;;0.52;0.10;;;8.50;99.90;;;;;;6244135;23;20078;-88
2022/11/10 04:19:19;;;;;;;0.80;0.50;;;8.60;99.90;;;;;;6243789;23;20095;-88
2022/11/10 04:21:45;;;;;;;0.67;0.63;;;8.60;99.90;;;;;;6219547;23;20055;-88
2022/11/10 04:24:10;;;;;;;0.35;0.15;;;8.50;99.90;;;;;;6218824;23;20017;-88
2022/11/10 04:26:37;;;;;;;1.03;0.47;;;8.60;99.90;;;;;;6219469;23;20456;-88
2022/11/10 04:29:09;;;;;;;0.43;0.22;;;8.60;99.90;;;;;;6242999;23;20031;-88
2022/11/10 04:31:36;;;;;;;0.30;0.30;;;8.60;99.90;;;;;;6219027;23;20016;-88
2022/11/10 04:34:03;;;;;;;0.17;0.17;;;8.60;99.90;;;;;;6218809;23;20018;-88
2022/11/10 04:36:31;;;;;;;1.00;0.25;;;9.30;99.90;;;;;;6219049;23;20016;-88
2022/11/10 04:38:57;;;;;;;0.55;0.22;;;8.60;99.90;;;;;;6218487;23;20028;-89
2022/11/10 04:41:24;;;;;;;0.50;0.30;;;8.80;99.90;;;;;;6244063;23;20016;-88
2022/11/10 04:43:50;;;;;;;0.73;0.40;;;8.60;99.90;;;;;;6244470;23;20020;-88
2022/11/10 04:46:24;;;;;;;0.52;0.45;;;9.40;99.90;;;;;;6218689;23;20361;-88
2022/11/10 04:48:50;;;;;;;1.33;0.40;;;8.60;99.90;;;;;;6218953;23;20069;-88
2022/11/10 04:51:18;;;;;;;0.35;0.25;;;8.70;99.90;;;;;;6243932;23;20824;-88
2022/11/10 04:53:46;;;;;;;0.43;0.43;;;9.20;99.90;;;;;;6219207;23;20020;-87
2022/11/10 04:56:19;;;;;;;0.52;0.50;;;9.10;99.90;;;;;;6219001;23;20019;-88
2022/11/10 04:58:46;;;;;;;1.05;0.50;;;9.60;99.90;;;;;;6219242;23;20012;-88
2022/11/10 05:01:13;;;;;;;0.47;0.30;;;8.80;99.90;;;;;;6216409;23;20532;-88
2022/11/10 05:03:39;;;;;;;0.20;0.17;;;8.80;99.90;;;;;;6219239;23;20090;-88
2022/11/10 05:06:05;;;;;;;0.22;0.10;;;8.90;99.90;;;;;;6218314;23;20464;-88
2022/11/10 05:08:31;;;;;;;0.40;0.40;;;8.80;99.90;;;;;;6244198;23;20020;-87
2022/11/10 05:10:57;;;;;;;0.20;0.10;;;8.80;99.90;;;;;;6243770;23;20071;-88
2022/11/10 05:13:23;;;;;;;0.43;0.13;;;8.90;99.90;;;;;;6243277;23;20441;-88
2022/11/10 05:15:50;;;;;;;0.17;0.17;;;8.90;99.90;;;;;;6218342;23;20059;-88
2022/11/10 05:18:16;;;;;;;0.75;0.40;;;8.80;99.90;;;;;;6242598;23;20016;-88
2022/11/10 05:20:42;;;;;;;1.13;0.60;;;9.80;99.90;;;;;;6218220;23;20376;-87
2022/11/10 05:25:54;;;;;;;1.58;0.60;;;8.70;99.90;;;;;;6244216;23;20349;-88
2022/11/10 05:28:20;;;;;;;0.22;0.20;;;8.80;99.90;;;;;;6192836;23;20069;-88
2022/11/10 05:30:46;;;;;;;0.67;0.37;;;10.10;99.90;;;;;;6192608;23;20054;-88
2022/11/10 05:33:11;;;;;;;0.10;0.10;;;8.80;99.90;;;;;;6217556;23;20016;-88
2022/11/10 05:35:37;;;;;;;0.50;0.20;;;8.80;99.90;;;;;;6244083;23;20243;-88
2022/11/10 05:38:04;;;;;;;0.20;0.20;;;8.80;99.90;;;;;;6218216;23;20020;-88
2022/11/10 05:40:30;;;;;;;0.47;0.05;;;8.80;99.90;;;;;;6243396;23;20338;-87
2022/11/10 05:42:57;;;;;;;0.30;0.30;;;8.80;99.90;;;;;;6193676;23;20016;-88
2022/11/10 05:45:24;;;;;;;0.25;0.10;;;8.80;99.90;;;;;;6193282;23;20020;-88
2022/11/10 05:47:51;;;;;;;0.05;0.05;;;8.80;99.90;;;;;;6243402;23;20099;-88
2022/11/10 05:50:18;;;;;;;1.05;0.95;;;8.90;99.90;;;;;;6217430;23;20027;-88
2022/11/10 05:52:50;;;;;;;1.02;0.43;;;8.80;99.90;;;;;;6243873;23;20020;-88
2022/11/10 05:55:17;;;;;;;0.20;0.20;;;8.80;99.90;;;;;;6218048;23;20016;-88
2022/11/10 05:57:47;;;;;;;0.38;0.10;;;9.40;99.90;;;;;;6194287;23;20025;-88
2022/11/10 06:00:15;;;;;;;0.38;0.15;;;8.80;99.90;;;;;;6217098;23;20063;-88
2022/11/10 06:02:42;;;;;;;0.75;0.40;;;8.80;99.90;;;;;;6243090;23;20437;-87
2022/11/10 06:05:08;;;;;;;;;;;8.90;99.90;;;;;;6243541;23;20401;-89
2022/11/10 06:07:34;;;;;;;0.28;0.28;;;8.90;99.90;;;;;;6218237;23;19954;-87
2022/11/10 06:10:00;;;;;;;1.50;0.30;;;8.90;99.90;;;;;;6242299;23;20020;-88
2022/11/10 06:12:29;;;;;;;0.87;0.57;;;8.90;99.90;;;;;;6192656;23;20254;-88
2022/11/10 06:14:57;;;;;;;1.75;0.63;;;8.90;99.90;;;;;;6219172;23;20082;-88
2022/11/10 06:17:24;;;;;;;0.60;0.60;;;8.90;99.90;;;;;;6217595;23;20020;-87
2022/11/10 06:19:50;;;;;;;0.30;0.22;;;8.90;99.90;;;;;;6217594;23;20104;-87
2022/11/10 06:22:16;;;;;;;0.87;0.40;;;8.90;99.90;;;;;;6242183;23;20112;-88
2022/11/10 06:24:42;;;;;;;0.50;0.30;;;8.90;99.90;;;;;;6217408;23;20281;-87
2022/11/10 06:27:07;;;;;;;0.40;0.20;;;9.80;99.90;;;;;;6217925;23;20054;-87
2022/11/10 06:29:36;;;;;;;1.87;0.60;;;8.90;99.90;;;;;;6217008;23;20027;-88
2022/11/10 06:32:01;;;;;;;1.65;0.20;;;8.80;99.90;;;;;;6216925;23;20098;-88
2022/11/10 06:34:27;;;;;;;0.80;0.50;;;8.90;99.90;;;;;;6217306;23;20424;-88
2022/11/10 06:36:53;;;;;;;0.40;0.20;;;8.90;99.90;;;;;;6243135;23;20019;-88
2022/11/10 06:39:19;;;;;;;0.23;0.23;;;8.80;99.90;;;;;;6192727;23;20099;-88
2022/11/10 06:41:44;;;;;;;0.33;0.33;;;8.90;99.90;;;;;;6217945;23;20070;-87
2022/11/10 06:44:11;;;;;;;1.13;0.43;;;8.80;99.90;;;;;;6218065;23;20016;-88
2022/11/10 06:46:36;;;;;;;1.15;0.40;;;8.80;99.90;;;;;;6217574;23;20024;-88
2022/11/10 06:49:05;;;;;;;1.30;0.30;;;8.90;99.90;;;;;;6217836;23;20017;-88
2022/11/10 06:51:31;;;;;;;0.47;0.32;;;8.80;99.90;;;;;;6242455;23;20431;-88
2022/11/10 06:53:57;;;;;;;0.32;0.22;;;8.90;99.90;;;;;;6243650;23;20020;-88
2022/11/10 06:56:22;;;;;;;0.40;0.30;;;8.80;99.90;;;;;;6217689;23;20449;-88
2022/11/10 06:58:48;;;;;;;0.13;0.13;;;8.90;99.90;;;;;;6217595;23;20086;-88
2022/11/10 07:01:16;;;;;;;0.40;0.40;;;9.80;99.90;;;;;;6216604;23;20399;-88
2022/11/10 07:03:42;;;;;;;0.47;0.47;;;8.90;99.90;;;;;;6217920;23;20016;-87
2022/11/10 07:06:08;;;;;;;0.57;0.33;;;8.90;99.90;;;;;;6217538;23;20104;-88
2022/11/10 07:08:39;;;;;;;0.50;0.37;;;8.90;99.90;;;;;;6191468;23;20056;-88
2022/11/10 07:11:04;;;;;;;0.43;0.40;;;8.90;99.90;;;;;;6243045;23;20070;-86
2022/11/10 07:13:40;;;;;;;0.80;0.53;;;9.00;99.90;;;;;;6244370;23;20099;-91
2022/11/10 07:16:10;;;;;;;0.40;0.20;;;9.00;99.90;;;;;;6219738;23;20027;-90
2022/11/10 07:18:36;;;;;;;0.73;0.50;;;9.00;99.90;;;;;;6218593;23;20127;-90
2022/11/10 07:21:05;;;;;;;0.30;0.20;;;9.00;99.90;;;;;;6219111;23;20027;-88
2022/11/10 07:23:32;;;;;;;0.45;0.25;;;9.10;99.90;;;;;;6218777;23;20012;-89
2022/11/10 07:25:58;;;;;;;;;;;9.20;99.90;;;;;;6218586;23;20019;-88
2022/11/10 07:28:27;;;;;;;0.35;0.28;;;9.20;99.90;;;;;;6243027;23;19923;-89
2022/11/10 07:30:59;;;;;;;0.82;0.82;;;9.30;99.90;;;;;;6242452;23;20515;-88
2022/11/10 07:33:24;;;;;;;0.30;0.30;;;9.30;99.90;;;;;;6218958;23;20030;-83
2022/11/10 07:35:59;;;;;;;0.43;0.40;;;9.40;99.90;;;;;;6217562;23;20496;-88
2022/11/10 07:38:25;;;;;;;0.52;0.30;;;9.40;99.90;;;;;;6245231;22;20356;-87
2022/11/10 07:40:51;;;;;;;0.30;0.30;;;9.90;99.90;;;;;;6218237;23;20020;-85
2022/11/10 07:43:19;;;;;;;0.82;0.50;;;9.30;99.90;;;;;;6218592;23;20026;-87
2022/11/10 07:45:44;;;;;;;0.40;0.40;;;9.30;99.90;;;;;;6218529;23;20441;-87
2022/11/10 07:48:10;;;;;;;0.30;0.30;;;9.30;99.90;;;;;;6243740;23;20091;-87
2022/11/10 07:50:36;;;;;;;0.28;0.20;;;9.30;99.90;;;;;;6194411;23;20024;-86
2022/11/10 07:53:09;;;;;;;1.47;0.40;;;9.30;99.90;;;;;;6220282;23;20476;-84
2022/11/10 07:55:37;;;;;;;0.45;0.40;;;9.30;99.90;;;;;;6243974;23;20448;-86
2022/11/10 07:58:04;;;;;;;0.35;0.25;;;9.30;99.90;;;;;;6244679;23;20013;-86
2022/11/10 08:00:30;;;;;;;0.85;0.25;;;9.30;99.90;;;;;;6219132;23;20008;-86
2022/11/10 08:03:08;;;;;;;2.08;0.40;;;9.30;99.90;;;;;;6219269;23;20159;-88
2022/11/10 08:05:35;;;;;;;0.40;0.40;;;9.40;99.90;;;;;;6218216;23;20063;-87
2022/11/10 08:08:04;;;;;;;0.55;0.43;;;9.40;99.90;;;;;;6218707;23;20016;-86
2022/11/10 08:10:31;;;;;;;0.38;0.38;;;9.40;99.90;;;;;;6193891;23;20150;-86
2022/11/10 08:12:58;;;;;;;1.05;0.50;;;9.80;99.90;;;;;;6217832;23;20023;-88
2022/11/10 08:15:25;;;;;;;0.30;0.30;;;9.40;99.90;;;;;;6218580;23;20095;-89
2022/11/10 08:18:00;;;;;;;0.60;0.60;;;9.40;99.90;;;;;;6218024;23;20023;-88
2022/11/10 08:20:30;;;;;;;1.15;0.95;;;9.30;99.90;;;;;;6217660;23;20024;-89
2022/11/10 08:22:59;;;;;;;0.65;0.55;;;9.40;99.90;;;;;;6218502;23;20345;-88
2022/11/10 08:25:27;;;;;;;0.80;0.43;;;9.40;99.90;;;;;;6242197;23;20527;-91
2022/11/10 08:27:57;;;;;;;0.75;0.45;;;9.40;99.90;;;;;;6218548;23;20026;-87
2022/11/10 08:30:26;;;;;;;1.63;1.10;;;9.40;99.90;;;;;;6218332;23;20074;-84
2022/11/10 08:33:00;;;;;;;0.73;0.30;;;9.40;99.90;;;;;;6218795;23;20013;-88
2022/11/10 08:35:30;;;;;;;0.68;0.30;;;9.50;99.90;;;;;;6218327;23;20475;-86
2022/11/10 08:37:56;;;;;;;0.35;0.35;;;9.60;99.90;;;;;;6194562;23;20024;-88
2022/11/10 08:40:27;;;;;;;0.70;0.50;;;8.70;99.90;;;;;;6217598;23;20115;-88
2022/11/10 08:43:06;;;;;;;0.57;0.57;;;9.90;99.90;;;;;;6217994;23;20012;-89
2022/11/10 08:45:39;;;;;;;1.38;0.50;;;10.10;99.90;;;;;;6217723;23;20020;-89
2022/11/10 08:48:17;;;;;;;1.00;0.50;;;10.20;99.90;;;;;;6218232;23;20020;-89
2022/11/10 08:50:43;;;;;;;0.70;0.38;;;10.30;99.90;;;;;;6216584;23;20020;-91
2022/11/10 08:53:19;;;;;;;1.27;0.70;;;10.50;99.90;;;;;;6217771;23;20020;-85
2022/11/10 08:55:48;;;;;;;2.40;0.50;;;10.60;99.90;;;;;;6217094;23;20475;-87
2022/11/10 08:58:16;;;;;;;1.80;0.80;;;10.60;99.90;;;;;;6243886;23;20103;-86
2022/11/10 09:00:43;;;;;;;0.73;0.50;;;9.80;99.90;;;;;;6218319;23;20028;-87
2022/11/10 09:03:17;;;;;;;2.53;0.80;;;10.60;99.90;;;;;;6218518;23;20023;-87
2022/11/10 09:05:44;;;;;;;0.93;0.70;;;10.20;99.90;;;;;;6218244;23;20109;-86
2022/11/10 09:08:12;;;;;;;0.57;0.50;;;10.40;99.90;;;;;;6242163;23;20444;-86
2022/11/10 09:10:49;;;;;;;2.63;0.65;;;10.60;99.90;;;;;;6243350;23;20012;-86
2022/11/10 09:13:20;;;;;;;0.35;0.30;;;10.60;99.90;;;;;;6218177;23;20013;-86
2022/11/10 09:15:55;;;;;;;0.77;0.47;;;10.70;99.90;;;;;;6242862;23;20059;-85
2022/11/10 09:18:23;;;;;;;1.13;0.80;;;11.90;99.90;;;;;;6195288;23;20352;-86
2022/11/10 09:20:51;;;;;;;0.88;0.57;;;10.80;99.90;;;;;;6243056;23;20496;-87
2022/11/10 09:23:21;;;;;;;5.63;0.82;;;10.60;99.90;;;;;;6243680;23;20019;-86
2022/11/10 09:25:55;;;;;;;0.38;0.38;;;10.90;99.90;;;;;;6217511;23;20345;-86
2022/11/10 09:28:22;;;;;;;0.47;0.47;;;11.10;99.90;;;;;;6243140;23;20016;-88
2022/11/10 09:30:53;;;;;;;0.65;0.43;;;10.70;99.90;;;;;;6217379;23;20070;-90
2022/11/10 09:33:19;;;;;;;0.28;0.28;;;10.60;99.90;;;;;;6217664;23;20341;-89
2022/11/10 09:35:57;;;;;;;0.50;0.50;;;11.40;99.90;;;;;;6216776;23;20043;-89
2022/11/10 09:38:30;;;;;;;0.50;0.40;;;11.50;99.90;;;;;;6242986;23;20308;-89
2022/11/10 09:41:15;;;;;;;0.30;0.30;;;11.60;99.90;;;;;;6217192;23;20086;-86
2022/11/10 09:43:41;;;;;;;0.30;0.30;;;11.70;99.90;;;;;;6242113;23;20048;-88
2022/11/10 09:46:37;;;;;;;0.30;0.30;;;11.80;99.90;;;;;;6217779;23;20030;-81
2022/11/10 09:49:16;;;;;;;1.08;0.50;;;12.00;99.90;;;;;;6241398;23;20023;-92
2022/11/10 09:51:43;;;;;;;0.57;0.50;;;12.20;99.90;;;;;;6217558;23;20071;-89
2022/11/10 09:54:35;;;;;;;0.30;0.30;;;12.40;99.90;;;;;;6243265;23;20099;-89
2022/11/10 09:57:03;;;;;;;1.05;0.40;;;12.50;99.90;;;;;;6202102;23;20019;-87
2022/11/10 09:59:31;;;;;;;0.55;0.30;;;12.60;99.90;;;;;;6217532;23;20099;-88
2022/11/10 10:02:05;;;;;;;0.40;0.40;;;12.70;99.90;;;;;;6220718;23;20016;-87
2022/11/10 10:05:11;;;;;;;1.88;0.52;;;12.00;99.90;;;;;;6245834;23;20364;-91
2022/11/10 10:08:08;;;;;;;0.38;0.38;;;11.60;99.90;;;;;;6218707;23;20028;-93
2022/11/10 10:10:55;;;;;;;1.27;0.20;;;12.60;99.90;;;;;;6244720;23;20336;-92
2022/11/10 10:14:03;;;;;;;0.50;0.40;;;12.60;99.90;;;;;;6217524;23;20335;-90
2022/11/10 10:20:37;;;;;;;0.73;0.52;;;13.20;99.90;;;;;;6241781;22;20054;-92
2022/11/10 10:23:20;;;;;;;0.43;0.43;;;12.50;99.90;;;;;;6217964;23;20484;-95
2022/11/10 10:29:31;;;;;;;0.43;0.40;;;12.60;99.90;;;;;;6227274;22;20047;-93
2022/11/10 10:31:59;;;;;;;0.50;0.50;;;12.60;99.90;;;;;;6247356;23;20012;-86
2022/11/10 10:35:09;;;;;;;1.38;0.63;;;12.70;99.90;;;;;;6220241;23;20016;-92
2022/11/10 10:38:03;;;;;;;0.95;0.60;;;12.70;99.90;;;;;;6215858;23;20046;-92
2022/11/10 10:40:31;;;;;;;0.73;0.73;;;13.00;99.90;;;;;;6218230;23;20020;-93
2022/11/10 10:43:52;;;;;;;0.60;0.50;;;12.80;99.90;;;;;;6217340;23;20026;-92
2022/11/10 10:46:41;;;;;;;0.38;0.38;;;13.70;99.90;;;;;;6219591;23;20400;-94
2022/11/10 10:49:29;;;;;;;1.38;0.40;;;12.90;99.90;;;;;;6217349;23;20479;-88
2022/11/10 10:52:13;;;;;;;0.10;0.10;;;12.50;99.90;;;;;;6243383;22;20151;-89
2022/11/10 10:54:39;;;;;;;0.57;0.57;;;13.10;99.90;;;;;;6217507;23;20019;-89
2022/11/10 10:57:27;;;;;;;0.82;0.40;;;13.30;99.90;;;;;;6217076;23;20341;-88
2022/11/10 11:00:20;;;;;;;0.10;0.10;;;13.70;99.90;;;;;;6217736;23;20074;-89
2022/11/10 11:03:27;;;;;;;0.20;0.20;;;14.10;99.90;;;;;;6246347;23;20023;-89
2022/11/10 11:06:05;;;;;;;0.30;0.30;;;14.30;99.90;;;;;;6211595;23;20027;-88
2022/11/10 11:08:34;;;;;;;0.10;0.10;;;14.40;99.90;;;;;;6217008;23;20112;-86
2022/11/10 11:11:09;;;;;;;0.20;0.20;;;14.50;99.90;;;;;;6242456;23;20077;-86
2022/11/10 11:13:38;;;;;;;0.70;0.30;;;14.50;99.90;;;;;;6191756;23;20020;-86
2022/11/10 11:16:07;;;;;;;0.10;0.10;;;14.50;99.90;;;;;;6242850;23;20016;-86
2022/11/10 11:18:37;;;;;;;1.65;0.40;;;14.10;99.90;;;;;;6222703;23;20103;-87
2022/11/10 11:21:33;;;;;;;0.10;0.10;;;14.10;99.90;;;;;;6197846;23;20550;-86
2022/11/10 11:24:22;;;;;;;0.10;0.10;;;13.90;99.90;;;;;;6219322;23;20371;-86
2022/11/10 11:27:02;;;;;;;0.73;0.10;;;13.80;99.90;;;;;;6219562;23;20024;-86
2022/11/10 11:29:59;;;;;;;0.10;0.10;;;13.30;99.90;;;;;;6219391;23;20055;-85
2022/11/10 11:32:43;;;;;;;0.60;0.15;;;13.60;99.90;;;;;;6230316;23;20048;-86
2022/11/10 11:35:20;;;;;;;0.20;0.10;;;13.50;99.90;;;;;;6218233;23;20016;-85
2022/11/10 11:38:04;;;;;;;;;;;12.30;99.90;;;;;;6219217;23;20082;-85
2022/11/10 11:40:49;;;;;;;0.15;0.15;;;13.50;99.90;;;;;;6218127;23;20325;-86
2022/11/10 11:43:43;;;;;;;0.10;0.10;;;13.40;99.90;;;;;;6217800;23;20018;-84
2022/11/10 11:46:46;;;;;;;0.40;0.20;;;13.40;99.90;;;;;;6218625;23;20452;-87
2022/11/10 11:49:46;;;;;;;0.05;0.05;;;13.40;99.90;;;;;;6242845;23;20066;-85
2022/11/10 11:52:33;;;;;;;0.10;0.10;;;13.40;99.90;;;;;;6217852;23;20358;-86
2022/11/10 11:55:25;;;;;;;0.45;0.13;;;13.40;99.90;;;;;;6218009;23;20020;-85
2022/11/10 11:57:57;;;;;;;0.17;0.10;;;13.60;99.90;;;;;;6218500;23;20050;-86
2022/11/10 12:00:49;;;;;;;0.47;0.20;;;13.70;99.90;;;;;;6220312;23;20016;-86
2022/11/10 12:03:33;;;;;;;0.17;0.17;;;13.80;99.90;;;;;;6218850;23;20027;-86
2022/11/10 12:06:28;;;;;;;0.03;0.03;;;13.70;99.90;;;;;;6221231;23;20364;-86
2022/11/10 12:09:04;;;;;;;0.00;0.00;;;13.60;99.90;;;;;;6177852;23;20063;-85
2022/11/10 12:11:40;;;;;;;0.13;0.10;;;13.60;99.90;;;;;;6220720;23;20016;-85
2022/11/10 12:14:30;;;;;;;0.00;0.00;;;13.40;99.90;;;;;;6244821;23;20019;-86
2022/11/10 12:17:04;;;;;;;0.30;0.30;;;13.60;99.90;;;;;;6218719;23;20031;-89
2022/11/10 12:19:41;;;;;;;0.03;0.03;;;12.80;99.90;;;;;;6218941;23;20024;-87
2022/11/10 12:22:36;;;;;;;0.15;0.10;;;13.50;99.90;;;;;;6216152;23;20020;-85
2022/11/10 12:25:22;;;;;;;0.10;0.10;;;13.50;99.90;;;;;;6216684;23;20027;-91
2022/11/10 12:28:45;;;;;;;;;;;;;;;;;;;;;
2022/11/10 12:31:51;;;;;;;0.10;0.10;;;12.50;99.90;;;;;;6126090;23;20017;-91
2022/11/10 12:35:17;;;;;;;;;;;;;;;;;;;;;
2022/11/10 12:37:48;;;;;;;0.05;0.00;;;12.70;99.90;;;;;;6204582;23;20026;-89
2022/11/10 12:40:24;;;;;;;0.10;0.10;;;13.20;99.90;;;;;;6217783;23;20016;-89
2022/11/10 12:43:04;;;;;;;0.10;0.10;;;13.30;99.90;;;;;;6243643;23;20016;-90
2022/11/10 12:46:10;;;;;;;;;;;;;;;;;;;;;
2022/11/10 12:49:05;;;;;;;;;;;;;;;;;;;;;
2022/11/10 12:52:17;;;;;;;0.13;0.13;;;13.40;99.90;;;;;;6242776;23;20034;-91
2022/11/10 12:54:52;;;;;;;0.65;0.20;;;13.40;99.90;;;;;;6223755;23;20031;-90
2022/11/10 12:57:27;;;;;;;0.17;0.10;;;13.30;99.90;;;;;;6218059;23;20461;-87
2022/11/10 13:00:01;;;;;;;0.10;0.10;;;13.30;99.90;;;;;;6242124;23;20020;-86
2022/11/10 13:02:30;;;;;;;0.00;0.00;;;13.30;99.90;;;;;;6218166;23;20096;-86
2022/11/10 13:05:14;;;;;;;0.20;0.20;;;13.90;99.90;;;;;;6217598;23;20016;-87
2022/11/10 13:07:42;;;;;;;0.17;0.17;;;13.30;99.90;;;;;;6242004;23;20111;-87
2022/11/10 13:10:34;;;;;;;0.10;0.10;;;13.30;99.90;;;;;;6216439;23;20020;-87
2022/11/10 13:13:20;;;;;;;0.00;0.00;;;13.30;99.90;;;;;;6236184;23;20027;-86
2022/11/10 13:15:57;;;;;;;0.10;0.00;;;13.40;99.90;;;;;;6223783;23;20016;-86
2022/11/10 13:18:41;;;;;;;0.10;0.10;;;13.40;99.90;;;;;;6243779;23;20024;-86
2022/11/10 13:21:07;;;;;;;0.10;0.10;;;13.40;99.90;;;;;;6219030;23;20024;-86
2022/11/10 13:23:36;;;;;;;0.37;0.30;;;13.50;99.90;;;;;;6219176;23;20012;-86
2022/11/10 13:26:10;;;;;;;0.32;0.10;;;13.40;99.90;;;;;;6243829;23;20016;-86
2022/11/10 13:28:48;;;;;;;0.10;0.10;;;13.40;99.90;;;;;;6218928;23;20073;-86
2022/11/10 13:31:25;;;;;;;0.03;0.03;;;13.40;99.90;;;;;;6218337;23;20468;-87
2022/11/10 13:34:06;;;;;;;0.22;0.20;;;13.40;99.90;;;;;;6219234;23;20020;-86
2022/11/10 13:36:43;;;;;;;0.20;0.10;;;13.50;99.90;;;;;;6243554;23;20095;-86
2022/11/10 13:39:19;;;;;;;0.08;0.08;;;13.50;99.90;;;;;;6243926;23;20353;-86
2022/11/10 13:41:47;;;;;;;0.25;0.25;;;13.50;99.90;;;;;;6194568;23;20023;-86
2022/11/10 13:44:31;;;;;;;0.00;0.00;;;13.50;99.90;;;;;;6243844;23;20020;-86
2022/11/10 13:47:09;;;;;;;0.47;0.20;;;13.50;99.90;;;;;;6244794;23;20407;-86